Time;durP1;ratioP1;P1;durP2;ratioP2;P2;SDS_P1;SDS_P2;PMS_P1;PMS_P2;Temp;Humidity;BMP_temperature;BMP_pressure;BME280_temperature;BME280_humidity;BME280_pressure;Samples;Min_cycle;Max_cycle;Signal;HPM_P1;HPM_P2
2022/05/01 00:00:26;;;;;;;14.40;10.40;;;;;;;7.96;65.21;101071.28;5091226;28;20056;-60
2022/05/01 00:02:53;;;;;;;12.02;9.55;;;;;;;7.96;64.63;101076.84;5093488;28;20048;-60
2022/05/01 00:05:20;;;;;;;11.60;9.13;;;;;;;7.94;64.45;101065.19;5093367;28;20055;-60
2022/05/01 00:07:48;;;;;;;10.90;8.60;;;;;;;7.89;64.45;101066.00;5093633;28;20481;-60
2022/05/01 00:10:15;;;;;;;10.80;8.73;;;;;;;7.84;64.73;101062.44;5093322;28;20055;-60
2022/05/01 00:12:44;;;;;;;14.40;9.57;;;;;;;7.82;65.00;101064.66;5093621;28;20059;-60
2022/05/01 00:15:12;;;;;;;11.88;9.50;;;;;;;7.76;64.95;101060.25;5092244;28;20062;-60
2022/05/01 00:17:39;;;;;;;13.68;9.38;;;;;;;7.70;65.34;101068.56;5093447;28;20048;-60
2022/05/01 00:20:08;;;;;;;11.02;9.73;;;;;;;7.65;65.87;101062.22;5091742;28;20118;-60
2022/05/01 00:22:39;;;;;;;14.38;11.02;;;;;;;7.63;65.12;101056.13;5093303;28;20048;-60
2022/05/01 00:25:07;;;;;;;13.57;10.77;;;;;;;7.58;66.07;101056.97;5093460;28;20499;-60
2022/05/01 00:27:35;;;;;;;14.90;10.43;;;;;;;7.47;66.59;101058.91;5093212;28;20079;-59
2022/05/01 00:30:05;;;;;;;11.60;10.05;;;;;;;7.49;66.33;101059.44;5082594;28;20052;-60
2022/05/01 00:36:25;;;;;;;13.45;10.27;;;;;;;7.44;66.27;101058.66;5073661;28;20048;-60
2022/05/01 00:38:12;;;;;;;11.45;9.70;;;;;;;7.43;66.40;101062.50;5077258;28;20059;-60
2022/05/01 00:40:43;;;;;;;15.80;10.90;;;;;;;7.38;65.94;101065.31;5092609;28;20397;-60
2022/05/01 00:43:10;;;;;;;14.38;10.43;;;;;;;7.37;66.67;101066.41;5089157;28;20048;-60
2022/05/01 00:45:39;;;;;;;13.32;10.27;;;;;;;7.27;66.22;101054.22;5089153;28;20051;-60
2022/05/01 00:48:08;;;;;;;15.20;10.55;;;;;;;7.21;66.95;101069.19;5090357;28;20048;-60
2022/05/01 00:50:36;;;;;;;12.32;9.13;;;;;;;7.22;66.32;101062.50;5091577;28;20063;-60
2022/05/01 00:53:07;;;;;;;10.85;8.68;;;;;;;7.17;66.23;101070.00;5091485;28;20044;-59
2022/05/01 00:55:35;;;;;;;12.68;9.43;;;;;;;7.13;66.34;101060.59;5091318;28;20048;-60
2022/05/01 00:58:04;;;;;;;12.25;9.50;;;;;;;7.14;66.12;101057.56;5090776;28;20052;-60
2022/05/01 01:00:32;;;;;;;12.45;9.38;;;;;;;7.09;66.46;101065.84;5088989;28;20056;-60
2022/05/01 01:03:02;;;;;;;12.05;9.35;;;;;;;7.09;66.10;101055.59;5093291;28;20059;-60
2022/05/01 01:05:31;;;;;;;11.75;9.90;;;;;;;7.06;66.35;101052.56;5092276;28;20052;-60
2022/05/01 01:08:06;;;;;;;15.07;10.15;;;;;;;6.96;66.73;101060.88;5092949;28;20052;-60
2022/05/01 01:10:35;;;;;;;15.18;9.80;;;;;;;6.94;66.57;101054.78;5092389;28;20056;-60
2022/05/01 01:13:03;;;;;;;14.80;10.98;;;;;;;6.91;66.81;101061.69;5092439;28;20071;-60
2022/05/01 01:15:31;;;;;;;14.45;10.38;;;;;;;6.92;66.71;101066.13;5090659;28;20507;-60
2022/05/01 01:17:59;;;;;;;12.68;10.65;;;;;;;6.94;66.97;101060.31;5092264;28;20056;-60
2022/05/01 01:20:29;;;;;;;13.80;10.88;;;;;;;6.91;67.11;101062.53;5090093;28;20066;-60
2022/05/01 01:23:01;;;;;;;13.85;10.90;;;;;;;6.89;67.37;101063.91;5088598;28;20052;-60
2022/05/01 01:25:32;;;;;;;12.98;10.23;;;;;;;6.88;67.31;101068.59;5091752;28;20519;-60
2022/05/01 01:28:02;;;;;;;12.68;10.20;;;;;;;6.87;67.51;101063.34;5092074;28;20052;-60
2022/05/01 01:33:15;;;;;;;17.98;13.30;;;;;;;6.76;67.06;101067.19;5074935;28;20361;-60
2022/05/01 01:35:46;;;;;;;15.45;11.43;;;;;;;6.74;67.73;101063.88;5090830;28;20481;-60
2022/05/01 01:38:19;;;;;;;14.88;11.23;;;;;;;6.75;67.11;101065.56;5091823;28;20044;-59
2022/05/01 01:40:48;;;;;;;14.73;10.57;;;;;;;6.76;67.42;101065.28;5091706;28;20048;-58
2022/05/01 01:43:20;;;;;;;13.38;11.00;;;;;;;6.75;67.40;101065.56;5092225;28;20079;-60
2022/05/01 01:45:47;;;;;;;13.07;10.00;;;;;;;6.74;67.44;101064.72;5091610;28;20052;-60
2022/05/01 01:48:16;;;;;;;13.60;10.00;;;;;;;6.73;67.34;101063.03;5091265;28;20048;-60
2022/05/01 01:50:44;;;;;;;12.57;10.80;;;;;;;6.70;67.16;101060.84;5091258;28;20048;-60
2022/05/01 01:53:15;;;;;;;13.45;10.57;;;;;;;6.66;66.83;101070.78;5092065;28;20526;-60
2022/05/01 01:55:42;;;;;;;13.85;10.63;;;;;;;6.65;66.84;101063.56;5091425;28;20390;-60
2022/05/01 01:58:10;;;;;;;14.20;10.82;;;;;;;6.58;67.11;101060.25;5091087;28;20493;-60
2022/05/01 02:00:37;;;;;;;13.65;10.70;;;;;;;6.54;66.75;101065.50;5089425;28;20055;-60
2022/05/01 02:03:06;;;;;;;13.60;11.00;;;;;;;6.49;67.64;101063.56;5092083;28;20052;-60
2022/05/01 02:05:35;;;;;;;12.65;9.50;;;;;;;6.47;67.12;101065.75;5092085;28;20048;-60
2022/05/01 02:08:03;;;;;;;12.00;9.52;;;;;;;6.47;67.13;101062.16;5091691;28;20059;-60
2022/05/01 02:10:34;;;;;;;13.85;10.98;;;;;;;6.46;66.94;101061.31;5091591;28;20414;-60
2022/05/01 02:13:02;;;;;;;14.18;10.95;;;;;;;6.40;67.39;101059.63;5090114;28;20044;-58
2022/05/01 02:15:31;;;;;;;14.43;10.73;;;;;;;6.38;67.73;101058.25;5090280;28;20531;-60
2022/05/01 02:17:59;;;;;;;14.90;11.05;;;;;;;6.32;67.44;101057.41;5091653;28;20472;-60
2022/05/01 02:21:33;;;;;;;12.93;10.73;;;;;;;6.33;67.67;101055.47;5091123;28;20048;-60
2022/05/01 02:23:16;;;;;;;16.02;11.95;;;;;;;6.34;67.64;101049.69;5090697;28;20064;-60
2022/05/01 02:25:45;;;;;;;15.57;12.57;;;;;;;6.28;68.42;101053.53;5091550;28;20059;-60
2022/05/01 02:28:16;;;;;;;15.50;11.23;;;;;;;6.26;67.99;101053.78;5090353;28;20052;-60
2022/05/01 02:30:44;;;;;;;14.88;11.95;;;;;;;6.27;67.89;101047.16;5091410;28;20048;-60
2022/05/01 02:33:12;;;;;;;15.25;11.93;;;;;;;6.27;68.13;101047.16;5091418;28;20052;-60
2022/05/01 02:35:43;;;;;;;16.73;10.93;;;;;;;6.27;67.99;101049.91;5091530;28;20059;-60
2022/05/01 02:38:11;;;;;;;15.35;11.27;;;;;;;6.26;68.11;101052.97;5091923;28;20048;-60
2022/05/01 02:40:39;;;;;;;16.25;12.43;;;;;;;6.25;68.06;101052.13;5091663;28;20051;-59
2022/05/01 02:43:07;;;;;;;14.50;11.65;;;;;;;6.23;68.04;101043.25;5090850;28;20075;-60
2022/05/01 02:45:35;;;;;;;14.40;11.30;;;;;;;6.24;68.21;101057.94;5094814;28;20122;-58
2022/05/01 02:48:06;;;;;;;14.48;11.25;;;;;;;6.25;67.73;101056.81;5095693;28;20048;-60
2022/05/01 02:50:36;;;;;;;13.88;10.85;;;;;;;6.27;68.00;101049.09;5095608;28;20485;-60
2022/05/01 02:53:04;;;;;;;13.95;10.57;;;;;;;6.28;67.89;101039.69;5095325;28;20358;-59
2022/05/01 02:55:33;;;;;;;12.88;9.55;;;;;;;6.30;67.96;101040.25;5093970;28;20130;-59
2022/05/01 02:58:02;;;;;;;13.10;9.77;;;;;;;6.33;67.78;101039.69;5093523;28;20048;-58
2022/05/01 03:00:30;;;;;;;13.63;9.87;;;;;;;6.33;67.61;101034.16;5094435;28;20055;-58
2022/05/01 03:02:58;;;;;;;14.45;11.55;;;;;;;6.39;67.97;101035.84;5094654;28;20508;-57
2022/05/01 03:05:26;;;;;;;12.30;10.48;;;;;;;6.37;67.93;101029.75;5094393;28;20052;-58
2022/05/01 03:07:55;;;;;;;12.50;10.23;;;;;;;6.37;68.51;101024.22;5094031;28;20056;-58
2022/05/01 03:10:23;;;;;;;14.48;10.73;;;;;;;6.41;68.46;101030.06;5093883;28;20472;-58
2022/05/01 03:12:50;;;;;;;13.48;10.93;;;;;;;6.46;68.50;101030.88;5094143;28;20048;-59
2022/05/01 03:15:18;;;;;;;15.10;11.25;;;;;;;6.53;68.29;101032.56;5094348;28;20496;-57
2022/05/01 03:23:16;;;;;;;13.32;10.60;;;;;;;6.67;68.39;101033.69;5094867;28;20059;-56
2022/05/01 03:25:44;;;;;;;13.25;10.80;;;;;;;6.73;68.89;101026.22;5093701;28;20044;-59
2022/05/01 03:28:11;;;;;;;14.90;11.60;;;;;;;6.80;68.37;101027.59;5094251;28;20055;-57
2022/05/01 03:30:38;;;;;;;15.98;11.95;;;;;;;6.87;68.89;101027.34;5093312;28;20063;-59
2022/05/01 03:33:07;;;;;;;15.20;11.85;;;;;;;6.96;69.00;101025.69;5094053;28;20059;-60
2022/05/01 03:35:36;;;;;;;13.45;11.10;;;;;;;7.05;68.27;101025.97;5092812;28;20488;-60
2022/05/01 03:38:04;;;;;;;19.23;13.30;;;;;;;7.10;69.26;101015.72;5093668;28;20052;-58
2022/05/01 03:40:35;;;;;;;15.02;12.52;;;;;;;7.20;68.63;101020.44;5092658;28;20051;-60
2022/05/01 03:43:03;;;;;;;16.20;13.20;;;;;;;7.28;68.68;101011.53;5094057;28;20047;-59
2022/05/01 03:45:30;;;;;;;16.13;13.48;;;;;;;7.35;68.47;101014.03;5091984;28;20067;-55
2022/05/01 03:47:58;;;;;;;15.32;13.02;;;;;;;7.42;68.36;101014.56;5094146;28;20068;-58
2022/05/01 03:50:27;;;;;;;16.85;13.02;;;;;;;7.52;68.16;101016.50;5093436;28;20409;-59
2022/05/01 03:52:54;;;;;;;15.13;12.02;;;;;;;7.58;68.46;101008.97;5093954;28;20052;-58
2022/05/01 03:55:22;;;;;;;13.20;11.15;;;;;;;7.62;68.04;101007.31;5092100;28;20444;-60
2022/05/01 03:57:49;;;;;;;15.02;12.48;;;;;;;7.65;67.43;101015.91;5093177;28;20048;-59
2022/05/01 04:00:19;;;;;;;14.13;12.05;;;;;;;7.72;67.97;101012.84;5084210;28;20047;-60
2022/05/01 04:02:47;;;;;;;12.98;10.07;;;;;;;7.57;67.86;101019.25;5093829;28;20055;-58
2022/05/01 04:05:15;;;;;;;17.73;12.73;;;;;;;7.54;67.84;101022.59;5093185;28;20054;-54
2022/05/01 04:07:44;;;;;;;13.05;10.80;;;;;;;7.47;68.71;101011.78;5093901;28;20048;-60
2022/05/01 04:10:13;;;;;;;17.65;13.32;;;;;;;7.51;67.64;101009.28;5092287;28;20044;-60
2022/05/01 04:12:43;;;;;;;17.48;12.80;;;;;;;7.53;68.18;101009.84;5093003;28;20059;-59
2022/05/01 04:15:13;;;;;;;17.02;13.20;;;;;;;7.57;67.72;101010.09;5091774;28;20508;-60
2022/05/01 04:17:40;;;;;;;17.17;12.70;;;;;;;7.57;67.54;101010.09;5093003;28;20449;-59
2022/05/01 04:20:10;;;;;;;15.60;12.88;;;;;;;7.51;67.63;101015.66;5092727;28;20072;-58
2022/05/01 04:22:39;;;;;;;17.75;13.52;;;;;;;7.52;67.69;101010.97;5093440;28;20056;-59
2022/05/01 04:25:16;;;;;;;14.88;11.63;;;;;;;7.56;67.30;101014.84;5093340;28;20052;-59
2022/05/01 04:27:44;;;;;;;17.30;12.30;;;;;;;7.57;67.55;101019.25;5073516;28;20049;-59
2022/05/01 04:30:12;;;;;;;16.50;12.43;;;;;;;7.61;67.39;101014.81;5090312;28;20055;-58
2022/05/01 04:32:50;;;;;;;14.38;11.57;;;;;;;7.60;67.17;101023.41;5092982;28;20059;-58
2022/05/01 04:35:25;;;;;;;16.23;12.38;;;;;;;7.62;66.48;101021.16;5092602;28;20044;-60
2022/05/01 04:37:53;;;;;;;16.88;12.60;;;;;;;7.62;67.58;101010.94;5092846;28;20048;-60
2022/05/01 04:40:22;;;;;;;15.40;12.27;;;;;;;7.63;66.77;101017.31;5092737;28;20476;-59
2022/05/01 04:42:49;;;;;;;15.33;11.80;;;;;;;7.64;67.25;101022.56;5092875;28;20047;-60
2022/05/01 04:45:17;;;;;;;15.18;12.23;;;;;;;7.71;67.19;101017.56;5092273;28;20126;-57
2022/05/01 04:47:45;;;;;;;14.00;12.52;;;;;;;7.77;67.55;101023.06;5092741;28;20052;-59
2022/05/01 04:50:13;;;;;;;15.57;12.35;;;;;;;7.84;67.64;101018.06;5092724;28;20445;-58
2022/05/01 04:52:40;;;;;;;14.82;11.93;;;;;;;7.91;67.63;101021.34;5092539;28;20052;-59
2022/05/01 04:55:08;;;;;;;13.90;11.05;;;;;;;7.90;67.11;101022.50;5091402;28;20047;-59
2022/05/01 04:57:38;;;;;;;17.98;13.18;;;;;;;7.93;67.08;101024.69;5092417;28;20048;-59
2022/05/01 05:00:07;;;;;;;15.52;12.20;;;;;;;8.02;66.53;101020.22;5091600;28;20051;-60
2022/05/01 05:02:37;;;;;;;15.60;11.90;;;;;;;8.08;66.53;101024.66;5092395;28;20446;-58
2022/05/01 05:05:05;;;;;;;16.08;13.15;;;;;;;8.14;66.67;101023.47;5075180;28;20050;-60
2022/05/01 05:07:33;;;;;;;15.70;12.65;;;;;;;8.25;66.73;101023.44;5091481;28;20052;-59
2022/05/01 05:10:01;;;;;;;17.00;13.18;;;;;;;8.31;66.40;101022.28;5092487;28;20389;-58
2022/05/01 05:12:28;;;;;;;17.15;13.68;;;;;;;8.42;66.30;101029.50;5091896;28;20058;-59
2022/05/01 05:14:59;;;;;;;17.40;14.30;;;;;;;8.54;65.42;101031.91;5091094;28;20051;-59
2022/05/01 05:17:27;;;;;;;15.75;12.25;;;;;;;8.64;65.23;101025.47;5091566;28;20059;-59
2022/05/01 05:19:55;;;;;;;16.17;13.63;;;;;;;8.73;65.21;101032.06;5092067;28;20428;-60
2022/05/01 05:22:22;;;;;;;15.07;12.30;;;;;;;8.85;64.88;101029.75;5091707;28;20051;-60
2022/05/01 05:24:50;;;;;;;14.43;12.68;;;;;;;8.97;65.09;101028.59;5089952;28;20126;-57
2022/05/01 05:27:20;;;;;;;17.50;12.77;;;;;;;9.10;64.26;101031.50;5092097;28;20044;-56
2022/05/01 05:29:47;;;;;;;;;;;;;;;9.16;64.78;101037.03;5092909;28;20059;-60
2022/05/01 05:32:16;;;;;;;13.70;11.23;;;;;;;9.24;64.42;101040.00;5091671;28;19920;-57
2022/05/01 05:34:43;;;;;;;13.57;11.80;;;;;;;9.35;63.73;101029.63;5091370;28;20047;-60
2022/05/01 05:37:11;;;;;;;14.48;12.05;;;;;;;9.47;63.62;101037.56;5092373;28;20067;-60
2022/05/01 05:39:38;;;;;;;14.85;12.27;;;;;;;9.63;62.91;101041.84;5089426;28;20051;-59
2022/05/01 05:42:06;;;;;;;15.55;13.13;;;;;;;9.72;62.50;101044.81;5091722;28;20044;-60
2022/05/01 05:44:33;;;;;;;15.05;12.85;;;;;;;9.84;62.30;101042.47;5090581;28;20055;-58
2022/05/01 05:47:01;;;;;;;15.65;12.43;;;;;;;9.96;62.25;101044.84;5091211;28;20058;-60
2022/05/01 05:49:31;;;;;;;15.52;13.45;;;;;;;10.13;61.65;101042.41;5091242;28;20063;-58
2022/05/01 05:52:00;;;;;;;14.65;12.88;;;;;;;10.27;61.59;101036.94;5091673;28;20044;-59
2022/05/01 05:54:27;;;;;;;16.13;13.05;;;;;;;10.40;61.26;101038.19;5090100;28;20397;-60
2022/05/01 05:56:54;;;;;;;17.00;13.23;;;;;;;10.59;60.78;101046.56;5090689;28;20048;-58
2022/05/01 05:59:22;;;;;;;18.30;13.45;;;;;;;10.72;60.39;101044.97;5091223;28;20056;-60
2022/05/01 06:01:49;;;;;;;14.07;12.57;;;;;;;10.84;60.30;101047.31;5090380;28;20040;-58
2022/05/01 06:04:17;;;;;;;17.25;13.52;;;;;;;10.89;60.52;101045.25;5091763;28;20055;-57
2022/05/01 06:06:45;;;;;;;11.35;10.15;;;;;;;11.04;60.78;101043.38;5091530;28;20480;-58
2022/05/01 06:09:13;;;;;;;15.80;12.57;;;;;;;11.18;60.34;101041.47;5080268;28;20055;-60
2022/05/01 06:11:40;;;;;;;13.77;11.75;;;;;;;11.35;60.08;101044.50;5091050;28;20055;-60
2022/05/01 06:14:08;;;;;;;12.45;11.15;;;;;;;11.53;59.36;101044.78;5091269;28;20052;-60
2022/05/01 06:16:35;;;;;;;14.50;11.95;;;;;;;11.67;58.51;101037.22;5090139;28;20059;-60
2022/05/01 06:19:02;;;;;;;13.45;11.32;;;;;;;11.74;58.43;101045.22;5093084;28;20052;-59
2022/05/01 06:21:30;;;;;;;14.23;11.68;;;;;;;11.95;57.61;101048.47;5095246;28;20048;-60
2022/05/01 06:23:58;;;;;;;14.85;12.40;;;;;;;12.12;56.92;101037.50;5095758;28;20063;-60
2022/05/01 06:26:26;;;;;;;15.20;11.80;;;;;;;12.22;56.12;101035.63;5095164;28;20051;-60
2022/05/01 06:28:53;;;;;;;14.02;11.82;;;;;;;12.38;55.69;101042.53;5095202;28;20051;-59
2022/05/01 06:31:20;;;;;;;13.88;12.43;;;;;;;12.46;54.95;101043.78;5092611;28;20484;-60
2022/05/01 06:33:48;;;;;;;15.63;12.70;;;;;;;12.58;54.59;101039.31;5083382;28;20052;-60
2022/05/01 06:36:16;;;;;;;14.80;12.60;;;;;;;12.68;54.32;101043.00;5095175;28;20063;-58
2022/05/01 06:38:44;;;;;;;13.48;12.05;;;;;;;12.83;53.66;101050.19;5095332;28;20060;-59
2022/05/01 06:41:14;;;;;;;14.30;11.85;;;;;;;13.00;53.97;101041.97;5095077;28;20056;-58
2022/05/01 06:43:41;;;;;;;13.35;10.93;;;;;;;13.33;53.67;101039.78;5095394;28;20064;-60
2022/05/01 06:46:08;;;;;;;13.80;12.30;;;;;;;13.57;53.08;101038.59;5093740;28;20044;-56
2022/05/01 06:48:35;;;;;;;14.48;11.98;;;;;;;13.78;53.09;101047.28;5095089;28;20082;-59
2022/05/01 06:51:03;;;;;;;15.45;11.55;;;;;;;14.04;52.15;101043.75;5095109;28;20067;-59
2022/05/01 06:53:30;;;;;;;14.32;12.30;;;;;;;14.25;51.64;101047.59;5093137;28;20515;-59
2022/05/01 06:55:58;;;;;;;13.60;11.65;;;;;;;14.55;50.68;101037.50;5094612;28;20047;-59
2022/05/01 06:58:26;;;;;;;12.55;10.65;;;;;;;14.76;50.96;101039.63;5094956;28;20060;-60
2022/05/01 07:00:55;;;;;;;12.45;11.13;;;;;;;14.81;49.69;101036.69;5094104;28;20051;-60
2022/05/01 07:03:22;;;;;;;11.90;10.70;;;;;;;15.02;49.70;101045.25;5078719;28;20052;-56
2022/05/01 07:05:50;;;;;;;10.73;9.63;;;;;;;15.23;49.35;101034.19;5088442;28;20420;-60
2022/05/01 07:08:17;;;;;;;13.57;10.48;;;;;;;15.49;48.72;101036.94;5095064;28;20050;-58
2022/05/01 07:10:45;;;;;;;11.85;10.20;;;;;;;15.62;48.63;101040.69;5093194;28;20412;-60
2022/05/01 07:13:12;;;;;;;14.00;12.50;;;;;;;15.92;46.37;101038.00;5090800;28;20063;-59
2022/05/01 07:15:41;;;;;;;11.95;9.73;;;;;;;16.13;46.02;101033.25;5094473;28;20416;-57
2022/05/01 07:18:08;;;;;;;12.70;10.30;;;;;;;16.20;46.66;101033.53;5087305;28;20055;-61
2022/05/01 07:20:36;;;;;;;13.05;10.98;;;;;;;16.48;45.02;101037.84;5087835;28;20052;-60
2022/05/01 07:23:04;;;;;;;13.52;9.65;;;;;;;16.69;44.54;101035.88;5089201;28;20111;-61
2022/05/01 07:25:32;;;;;;;11.30;10.10;;;;;;;16.70;44.49;101040.34;5092149;28;20056;-60
2022/05/01 07:28:00;;;;;;;10.48;9.40;;;;;;;16.81;43.56;101033.16;5094306;28;20048;-59
2022/05/01 07:30:30;;;;;;;9.68;8.68;;;;;;;16.84;43.38;101028.88;5092375;28;20488;-58
2022/05/01 07:32:59;;;;;;;11.00;9.18;;;;;;;17.07;43.39;101036.94;5094047;28;20147;-60
2022/05/01 07:35:26;;;;;;;11.18;9.95;;;;;;;17.29;43.40;101024.50;5093251;28;20063;-60
2022/05/01 07:37:54;;;;;;;10.35;9.10;;;;;;;17.68;43.07;101025.88;5092958;28;20059;-57
2022/05/01 07:40:24;;;;;;;11.40;10.38;;;;;;;18.23;41.25;101021.72;5093349;28;20048;-59
2022/05/01 07:42:51;;;;;;;13.05;10.63;;;;;;;18.61;40.95;101020.50;5091338;28;20055;-58
2022/05/01 07:45:19;;;;;;;10.25;9.25;;;;;;;19.00;40.66;101025.69;5092978;28;20072;-56
2022/05/01 07:47:46;;;;;;;11.25;9.20;;;;;;;19.51;39.16;101022.28;5092402;28;20048;-57
2022/05/01 07:50:17;;;;;;;10.60;8.48;;;;;;;19.93;38.06;101022.66;5098407;28;20048;-61
2022/05/01 07:52:44;;;;;;;10.52;9.30;;;;;;;20.59;36.98;101023.84;5101737;28;20052;-61
2022/05/01 07:55:12;;;;;;;10.07;9.07;;;;;;;21.31;36.01;101018.88;5093791;28;20506;-59
2022/05/01 07:57:42;;;;;;;10.25;8.93;;;;;;;21.56;34.69;101017.38;5099889;28;20055;-63
2022/05/01 08:00:11;;;;;;;13.00;9.80;;;;;;;22.15;34.11;101015.16;5093629;28;20055;-57
2022/05/01 08:05:23;;;;;;;9.43;8.48;;;;;;;24.67;30.80;101008.28;5103358;28;20416;-59
2022/05/01 08:07:52;;;;;;;9.82;8.93;;;;;;;25.69;28.50;101011.09;5092609;28;20040;-59
2022/05/01 08:10:19;;;;;;;8.65;7.38;;;;;;;26.82;28.12;101013.50;5092280;28;20052;-58
2022/05/01 08:12:49;;;;;;;8.45;7.53;;;;;;;26.98;25.90;101015.06;5093529;28;20075;-60
2022/05/01 08:15:18;;;;;;;8.88;7.30;;;;;;;27.30;25.04;101015.78;5092635;28;20052;-60
2022/05/01 08:17:45;;;;;;;8.52;6.70;;;;;;;27.94;24.04;101017.41;5092136;28;20055;-60
2022/05/01 08:23:05;;;;;;;7.82;6.20;;;;;;;28.61;23.00;101002.09;5081942;28;20055;-60
2022/05/01 08:25:32;;;;;;;7.30;6.60;;;;;;;28.85;22.73;101005.88;5092641;28;20052;-58
2022/05/01 08:28:00;;;;;;;7.82;6.32;;;;;;;29.17;21.97;101007.56;5092987;28;20404;-60
2022/05/01 08:30:29;;;;;;;6.05;5.45;;;;;;;29.40;21.70;101001.94;5092596;28;20059;-60
2022/05/01 08:32:59;;;;;;;7.75;6.20;;;;;;;29.86;21.60;100996.72;5091705;28;20044;-60
2022/05/01 08:35:27;;;;;;;7.13;5.85;;;;;;;30.10;20.90;101006.19;5093237;28;20052;-61
2022/05/01 08:38:00;;;;;;;6.50;5.90;;;;;;;31.08;20.92;100994.47;5092535;28;20055;-60
2022/05/01 08:40:29;;;;;;;5.72;5.10;;;;;;;31.39;19.42;101000.78;5092554;28;20063;-61
2022/05/01 08:42:57;;;;;;;6.05;5.45;;;;;;;32.06;18.89;100999.63;5091561;28;20052;-61
2022/05/01 08:45:27;;;;;;;5.45;4.70;;;;;;;32.17;18.45;101000.16;5091770;28;20082;-61
2022/05/01 08:48:00;;;;;;;6.03;5.05;;;;;;;31.07;18.53;100999.44;5092336;28;20052;-61
2022/05/01 08:50:28;;;;;;;6.75;5.40;;;;;;;30.67;19.78;101002.28;5092966;28;20065;-61
2022/05/01 08:52:59;;;;;;;6.68;5.65;;;;;;;31.23;18.79;101001.56;5091869;28;20052;-61
2022/05/01 08:55:27;;;;;;;6.53;5.78;;;;;;;30.82;20.33;100999.13;5099194;28;20047;-61
2022/05/01 08:58:00;;;;;;;6.10;5.55;;;;;;;30.47;20.08;100990.75;5098044;28;20048;-61
2022/05/01 09:00:28;;;;;;;7.57;6.75;;;;;;;30.23;20.15;100998.56;5092079;28;20059;-61
2022/05/01 09:02:57;;;;;;;7.05;6.38;;;;;;;30.14;20.84;100992.56;5092344;28;20400;-61
2022/05/01 09:05:25;;;;;;;7.40;6.68;;;;;;;30.21;20.73;100995.31;5092603;28;20052;-61
2022/05/01 09:07:53;;;;;;;6.95;6.28;;;;;;;30.36;20.85;100987.25;5089955;28;20059;-61
2022/05/01 09:10:26;;;;;;;7.30;6.40;;;;;;;30.32;20.38;100987.34;5090188;28;20492;-61
2022/05/01 09:12:53;;;;;;;7.15;6.45;;;;;;;29.59;21.40;101005.31;5092349;28;20044;-61
2022/05/01 09:15:35;;;;;;;7.15;6.25;;;;;;;29.46;20.43;100994.47;5091780;28;20059;-60
2022/05/01 09:18:05;;;;;;;7.18;6.30;;;;;;;28.92;21.20;100991.47;5090681;28;20051;-61
2022/05/01 09:20:33;;;;;;;6.22;5.10;;;;;;;28.51;21.21;100992.34;5090005;28;20497;-61
2022/05/01 09:23:01;;;;;;;6.72;5.55;;;;;;;28.34;21.50;100986.34;5091211;28;20055;-61
2022/05/01 09:25:29;;;;;;;6.80;5.93;;;;;;;28.18;22.14;100991.00;5091292;28;20052;-61
2022/05/01 09:27:59;;;;;;;6.95;6.05;;;;;;;27.97;22.12;100989.16;5091768;28;20048;-61
2022/05/01 09:30:38;;;;;;;6.45;5.85;;;;;;;27.46;23.00;100994.41;5091774;28;20052;-61
2022/05/01 09:33:16;;;;;;;5.65;4.70;;;;;;;27.21;22.66;100994.53;5091017;28;20051;-61
2022/05/01 09:35:44;;;;;;;5.10;4.47;;;;;;;26.78;22.16;100994.72;5091582;28;20067;-61
2022/05/01 09:38:19;;;;;;;6.90;5.50;;;;;;;26.58;22.61;101000.91;5091741;28;20051;-61
2022/05/01 09:40:48;;;;;;;6.70;5.60;;;;;;;26.13;23.90;101000.53;5092067;28;20052;-61
2022/05/01 09:43:36;;;;;;;6.60;5.45;;;;;;;25.63;24.38;100994.78;5091049;28;20051;-61
2022/05/01 09:46:17;;;;;;;6.45;5.50;;;;;;;25.52;24.74;100997.63;5090085;28;20051;-61
2022/05/01 09:48:58;;;;;;;6.95;5.40;;;;;;;25.25;25.36;100997.16;5091626;28;20048;-60
2022/05/01 09:51:27;;;;;;;5.28;4.78;;;;;;;25.31;24.69;100996.34;5091554;28;20055;-61
2022/05/01 09:53:54;;;;;;;5.85;4.78;;;;;;;25.05;24.97;100990.91;5090316;28;20195;-61
2022/05/01 09:56:21;;;;;;;6.80;5.13;;;;;;;25.20;24.94;100994.63;5095382;28;20059;-61
2022/05/01 09:58:57;;;;;;;5.53;4.80;;;;;;;25.48;24.24;100986.19;5091135;28;20055;-61
2022/05/01 10:01:27;;;;;;;4.82;4.30;;;;;;;26.36;23.19;100982.97;5089323;28;20048;-61
2022/05/01 10:03:57;;;;;;;5.20;4.70;;;;;;;27.31;22.20;100988.78;5090896;28;20063;-61
2022/05/01 10:06:25;;;;;;;4.60;3.97;;;;;;;27.34;21.25;100987.16;5089788;28;20068;-61
2022/05/01 10:08:53;;;;;;;4.43;3.63;;;;;;;27.33;20.83;100988.38;5089015;28;20056;-60
2022/05/01 10:11:23;;;;;;;4.78;4.05;;;;;;;27.22;20.92;100979.00;5091952;28;20052;-60
2022/05/01 10:13:51;;;;;;;3.80;3.42;;;;;;;27.25;21.79;100984.72;5091241;28;20048;-60
2022/05/01 10:16:18;;;;;;;5.63;4.68;;;;;;;26.89;20.81;100984.88;5091350;28;20423;-60
2022/05/01 10:18:47;;;;;;;5.00;4.30;;;;;;;26.97;21.04;100982.81;5090982;28;20052;-60
2022/05/01 10:21:15;;;;;;;5.15;4.25;;;;;;;26.77;21.18;100987.38;5091278;28;20051;-60
2022/05/01 10:23:42;;;;;;;5.55;4.15;;;;;;;27.43;21.03;100978.91;5090278;28;20052;-60
2022/05/01 10:26:17;;;;;;;4.45;4.00;;;;;;;27.21;21.96;100974.50;5090100;28;20063;-61
2022/05/01 10:29:10;;;;;;;4.85;4.00;;;;;;;27.47;21.33;100968.25;5090576;28;20056;-59
2022/05/01 10:35:26;;;;;;;4.78;3.80;;;;;;;27.50;20.62;100975.97;5086989;28;20067;-54
2022/05/01 10:38:23;;;;;;;4.63;3.78;;;;;;;27.83;19.43;100979.44;5087742;28;20393;-52
2022/05/01 10:40:52;;;;;;;5.40;4.20;;;;;;;27.71;20.35;100974.22;5069139;28;20075;-56
2022/05/01 10:43:25;;;;;;;4.45;4.00;;;;;;;27.45;19.70;100970.72;5079942;28;20054;-56
2022/05/01 10:45:53;;;;;;;3.90;3.50;;;;;;;27.57;19.78;100971.44;5091263;28;20040;-54
2022/05/01 10:48:32;;;;;;;4.40;4.00;;;;;;;28.74;20.14;100960.16;5091865;28;20056;-56
2022/05/01 10:51:34;;;;;;;4.95;4.10;;;;;;;30.83;17.47;100948.97;5091347;28;20056;-57
2022/05/01 10:54:37;;;;;;;5.05;4.05;;;;;;;31.55;15.77;100951.09;5089799;28;20044;-55
2022/05/01 10:57:11;;;;;;;4.20;3.85;;;;;;;31.29;16.24;100947.13;5111346;28;20422;-56
2022/05/01 10:59:44;;;;;;;4.75;4.28;;;;;;;31.98;16.94;100934.78;5095668;28;20493;-54
2022/05/01 11:02:41;;;;;;;5.60;4.00;;;;;;;33.52;15.63;100933.19;5091353;28;20481;-56
2022/05/01 11:05:11;;;;;;;4.32;3.70;;;;;;;33.76;14.07;100930.75;5092928;28;20059;-56
2022/05/01 11:07:40;;;;;;;4.38;3.60;;;;;;;31.77;15.89;100931.19;5093962;28;20052;-55
2022/05/01 11:13:08;;;;;;;5.07;4.28;;;;;;;34.45;15.25;100927.09;5095207;28;20527;-56
2022/05/01 11:15:45;;;;;;;4.40;3.97;;;;;;;35.41;14.01;100915.16;5094863;28;20059;-55
2022/05/01 11:18:17;;;;;;;5.38;4.10;;;;;;;36.25;13.54;100917.78;5095281;28;20051;-56
2022/05/01 11:20:46;;;;;;;4.57;3.85;;;;;;;37.61;11.91;100909.72;5094138;28;20059;-56
2022/05/01 11:23:31;;;;;;;4.30;3.90;;;;;;;37.53;12.08;100909.28;5093342;28;20056;-55
2022/05/01 11:26:13;;;;;;;3.97;3.67;;;;;;;36.50;12.27;100907.16;5094335;28;20059;-58
2022/05/01 11:28:53;;;;;;;3.95;3.55;;;;;;;34.04;13.52;100910.78;5094779;28;20408;-56
2022/05/01 11:31:48;;;;;;;4.40;4.00;;;;;;;32.49;14.86;100912.00;5094388;28;20059;-51
2022/05/01 11:34:49;;;;;;;5.03;4.10;;;;;;;31.62;15.57;100912.66;5094580;28;20052;-57
2022/05/01 11:37:17;;;;;;;4.28;3.88;;;;;;;30.95;15.99;100914.63;5094297;28;20051;-55
2022/05/01 11:40:21;;;;;;;5.20;4.38;;;;;;;29.90;18.04;100906.41;5093329;28;20404;-57
2022/05/01 11:42:51;;;;;;;4.95;4.43;;;;;;;29.57;17.99;100910.22;5094091;28;20052;-55
2022/05/01 11:45:19;;;;;;;4.13;3.65;;;;;;;29.32;18.30;100903.66;5094024;28;20044;-54
2022/05/01 11:47:52;;;;;;;5.40;4.78;;;;;;;28.79;19.11;100908.09;5093410;28;20488;-54
2022/05/01 11:50:27;;;;;;;4.35;3.95;;;;;;;28.33;19.55;100895.91;5091523;28;20408;-56
2022/05/01 11:52:57;;;;;;;4.90;4.15;;;;;;;27.95;19.44;100897.97;5090172;28;20492;-51
2022/05/01 12:03:41;;;;;;;5.18;4.53;;;;;;;27.37;20.42;100896.81;5098734;28;20059;-52